RJOF(METAR)
10/16 18:00
METAR RJOF 160900Z 21002KT 9999 FEW030 17/10 Q1022 RMK 1CU030 A3019=
戻る
トップページへ戻る
IMOC Co,.Ltd.